createdAt,value
2018-11-10T00:06:30.802Z,86.20
2018-11-10T00:26:13.321Z,86.70
2018-11-10T00:45:54.512Z,86.10
2018-11-10T01:05:46.303Z,87.60
2018-11-10T01:25:31.088Z,88.30
2018-11-10T01:45:22.665Z,89.70
2018-11-10T02:05:17.065Z,89.20
2018-11-10T02:25:03.437Z,89.10
2018-11-10T02:44:49.476Z,90.60
2018-11-10T03:04:38.937Z,90.80
2018-11-10T03:24:33.763Z,90.60
2018-11-10T03:44:21.210Z,92.30
2018-11-10T04:04:17.248Z,92.20
2018-11-10T04:24:05.504Z,92.80
2018-11-10T04:43:47.726Z,91.90
2018-11-10T05:03:42.717Z,91.90
2018-11-10T05:23:31.318Z,91.40
2018-11-10T05:43:17.180Z,89.80
2018-11-10T06:03:03.954Z,80.20
2018-11-10T06:42:42.475Z,60.40
2018-11-10T07:22:19.980Z,50.40
2018-11-10T07:42:14.214Z,48.10
2018-11-10T08:02:00.428Z,45.20
2018-11-10T08:21:56.428Z,44.00
2018-11-10T09:01:37.020Z,41.40
2018-11-10T09:21:23.335Z,43.80
2018-11-10T09:41:09.894Z,41.20
2018-11-10T10:01:06.476Z,42.20
2018-11-10T10:40:38.344Z,43.20
2018-11-10T11:21:48.666Z,46.40
2018-11-10T11:41:41.833Z,45.80
2018-11-10T12:21:19.978Z,49.30
2018-11-10T12:41:13.450Z,48.60
2018-11-10T13:01:00.592Z,49.30
2018-11-10T13:20:25.805Z,49.20
2018-11-10T13:40:19.077Z,51.10
2018-11-10T14:00:09.377Z,51.60
2018-11-10T14:19:51.042Z,52.20
2018-11-10T14:59:37.638Z,57.10
2018-11-10T15:19:33.874Z,58.40
2018-11-10T15:39:21.276Z,60.50
2018-11-10T15:59:07.032Z,61.10
2018-11-10T16:18:52.085Z,66.40
2018-11-10T16:38:43.432Z,66.80
2018-11-10T16:58:36.361Z,67.10
2018-11-10T17:18:31.200Z,68.90
2018-11-10T17:38:28.030Z,69.60
2018-11-10T17:58:10.704Z,71.50
2018-11-10T18:37:50.271Z,75.00
2018-11-10T18:57:37.473Z,75.10
2018-11-10T19:17:28.857Z,76.40
2018-11-10T19:37:23.645Z,76.20
2018-11-10T20:17:00.231Z,76.50
2018-11-10T20:36:45.631Z,76.10
2018-11-10T20:56:27.341Z,78.40
2018-11-10T21:16:21.445Z,77.00
2018-11-10T21:36:01.122Z,78.70
2018-11-10T21:55:56.033Z,78.90
2018-11-10T22:15:48.169Z,80.30
2018-11-10T22:35:45.004Z,81.40
2018-11-10T22:55:33.262Z,82.50
2018-11-10T23:15:26.176Z,83.00
2018-11-10T23:35:23.029Z,83.50
2018-11-10T23:55:21.896Z,83.80
